AirNav   Air Wisconsin Up To $57,000 Bonus
 
 1040 users online  

52F Northwest Regional Airport
Roanoke, Texas, USA

GOING TO ROANOKE?


FAA INFORMATION EFFECTIVE 16 JUNE 2022

Location

FAA Identifier: 52F
Lat/Long: 33-02-59.4410N 097-13-56.0550W
33-02.990683N 097-13.934250W
33.0498447,-97.2322375
(estimated)
Elevation: 643 ft. / 196 m (estimated)
Variation: 07E (1985)
From city: 3 miles NW of ROANOKE, TX
Time zone: UTC -5 (UTC -6 during Standard Time)
Zip code: 76262

Airport Operations

Airport use: Open to the public
Activation date: 12/1969
Control tower: no
ARTCC: FORT WORTH CENTER
FSS: FORT WORTH FLIGHT SERVICE STATION
NOTAMs facility: FTW (NOTAM-D service available)
Attendance: MON-SAT 0900-1700
Wind indicator: yes
Segmented circle: no
Lights: SS-SR
Beacon: white-green (lighted land airport)
Operates sunset to sunrise.
Landing fee: yes

Airport Communications

CTAF: 122.9
WX ASOS at AFW (6 nm SW): PHONE 817-491-6188
WX ASOS at DTO (9 nm N): 119.325 (940-383-8457)
WX ASOS at DFW (13 nm SE): PHONE 972-615-2608
WX ASOS at FTW (15 nm SW): PHONE 817-740-3346

Airport Services

Fuel available: 100LL
Parking: hangars and tiedowns
Airframe service: MAJOR
Powerplant service: MAJOR
Bottled oxygen: NONE
Bulk oxygen: NONE

Runway Information

Runway 17/35

Dimensions: 3500 x 40 ft. / 1067 x 12 m
Surface: asphalt, in excellent condition
Weight bearing capacity: 
Single wheel: 8.0
Runway edge lights: low intensity
RUNWAY 17  RUNWAY 35
Traffic pattern: leftleft
Displaced threshold: 400 ft.320 ft.
Markings: NSTD, in good conditionNSTD, in good condition
Obstructions: 17 ft. trees, 350 ft. from runway, 125 ft. right of centerline
17 FT ROAD 35 FT FM RY END, 0 FT BOTH.
30 ft. trees, 221 ft. from runway
4 FT FENCE 15 FT FM RWY END 0 FT B; 20 FT TREE, 15 FT DSTC, 95 FT L; 40 FT TREE, 160-201 FT DSTC, 125 FT L..

Airport Ownership and Management from official FAA records

Ownership: Privately-owned
Owner: HYDE-WAY, INC.
PO BOX 1542
ROANOKE, TX 76262
Phone 817-430-1905
Manager: ROB REECE
132 BOEING WAY
ROANOKE, TX 76262
Phone 682-237-9039

Airport Operational Statistics

Aircraft based on the field: 616
Single engine airplanes: 550
Multi engine airplanes: 62
Helicopters: 4
    
Aircraft operations: avg 454/day *
66% local general aviation
33% transient general aviation
<1% air taxi
* for 12-month period ending 30 December 2018

Additional Remarks

FULL RWY AVBL FOR TKOF.
RWY MKGS, LIGHTING DO NOT COINCIDE WITH PUBLISHED VALUES.
ARPT SFC COND NOT REPORTED PPR 30 MIN 817-430-1905.
LDG FEES.
PILOTS ARE REQSTD TO CALL AMGR 30 MIN PRIOR ARR FOR FLD CONDS AND SAFETY BRIEF.
NON-BASED FLT SCHOOLS RQR PRIOR WRITTEN PMSN.
RSTRD USE HOP: MUST CTC ARPT OPNS AT 817-430-1905 FOR AUTH.
THE FLWG OPNS ARE PROHIBITED: ULTRALIGHTS, POWERED PARACHUTES, SAILPLANES, GLIDERS, AUTO-GYROS, SKYDIVING, AG-OPERATIONS AND AIRSHIPS.
RWY 17, 17 FT RD PASSES THROUGH THE APPROACH, 35 FT FROM RWY END. WATCH FOR VEHICLES CROSSING.
TURF AREA BTW RWY AND TWYS UNSAFE FOR ACFT.
FOR CD CTC REGIONAL APCH AT 972-615-2799.
UNCONTROLLED VEHICLE TFC INVOF HGRS AND TWYS.

Instrument Procedures

There are no published instrument procedures at 52F.

Some nearby airports with instrument procedures:

KAFW - Fort Worth Alliance Airport (6 nm SW)
KDTO - Denton Enterprise Airport (9 nm N)
KDFW - Dallas-Fort Worth International Airport (13 nm SE)
4T2 - Kenneth Copeland Airport (14 nm W)
KFTW - Fort Worth Meacham International Airport (15 nm SW)
KNFW - Fort Worth Naval Air Station JRB (Carswell Field) Airport (20 nm SW)
 
Loc | Ops | Rwys | IFR | FBO | Links
Com | Nav | Svcs | Stats | Notes

City of Fort Worth
 
Area around 52F (Northwest Regional Airport)
 
Road maps at: MapQuest Bing Google
 
Aerial photo
WARNING: Photo may not be current or correct
Aerial photo of 52F (Northwest Regional Airport)
Photo by AV8RPhoto
Photo taken 01-Oct-2017
looking south.

Do you have a better or more recent aerial photo of Northwest Regional Airport that you would like to share? If so, please send us your photo.

 
Sectional chart

 
Airport distance calculator
Flying to Northwest Regional Airport? Find the distance to fly.

From to 52F

Sunrise and sunset
Times for 26-Jun-2022
 Local
(UTC-5)
 Zulu
(UTC)
Morning civil twilight05:5410:54
Sunrise06:2311:23
Sunset20:4101:41
Evening civil twilight21:0902:09

Current date and time
Zulu (UTC)  26-Jun-2022 14:04:03
Local (UTC-5)  26-Jun-2022 09:04:03
 
METAR
KAFW 
7nm SW 
261353Z 36005KT 10SM SCT140 BKN250 30/16 A3011 RMK AO2 SLP178 T03000161
KDTO 
9nm N 
261353Z 36005KT 10SM CLR 29/17 A3012 RMK AO2 SLP188 T02940167
KDFW 
14nm SE 
261353Z 33009KT 10SM SCT140 BKN170 BKN250 31/14 A3010 RMK AO2 SLP183 T03110144 $
KFTW 
15nm SW 
261353Z 31013G21KT 10SM CLR 30/15 A3011 RMK AO2 SLP185 T03000150
TAF
KAFW 
7nm SW 
261120Z 2612/2712 25006KT P6SM FEW180 SCT250 FM261700 VRB04KT P6SM FEW250 FM262000 02012KT P6SM FEW090 FM270000 02011G21KT P6SM VCTS SCT090CB SCT120 SCT250 FM270400 03009KT P6SM SCT035 BKN200
KDFW 
14nm SE 
261120Z 2612/2718 25006KT P6SM FEW180 SCT250 FM261700 VRB04KT P6SM FEW250 FM262000 02012KT P6SM FEW090 FM270000 02011G21KT P6SM VCTS SCT090CB SCT120 SCT250 FM270400 03009KT P6SM SCT035 BKN200
KFTW 
15nm SW 
261120Z 2612/2712 25006KT P6SM FEW180 SCT250 FM261700 VRB04KT P6SM FEW250 FM262000 02012KT P6SM FEW090 FM270000 02011G21KT P6SM VCTS SCT090CB SCT120 SCT250 FM270400 03009KT P6SM SCT035 BKN200
NOTAMs
Click for the latest NOTAMs
NOTAMs are issued by the DoD/FAA and will open in a separate window not controlled by AirNav.

 

 
 

Would you like to see your business listed on this page?

 If your business provides an interesting product or service to pilots, flight crews, aircraft, or users of the Northwest Regional Airport, you should consider listing it here.  To start the listing process, click on the button below
 
Add a business
 

Other Pages about Northwest Regional Airport

Fly 52F
 
Update a link
 
Copyright © AirNav, LLC. All rights reserved. Privacy Policy  Contact